Terminal Aerodrome Forecast
Issued by NWS Shreveport, LA

Home | Current Version | Previous Version | Text Only | Print | Product List | Glossary On
Versions: 1 2 3 4 5 6 7 8 9 10 11 12 13
000
FTUS44 KSHV 271100 RRA
TAFSHV
TAF
KSHV 271147Z 2712/2812 00000KT P6SM FEW150
     FM271500 09007KT P6SM FEW150 FEW250
     FM271900 09007KT P6SM SCT050 SCT250
     FM280200 VRB03KT P6SM FEW050 SCT250=

USA.gov is the U.S. government's official web portal to all federal, state and local government web resources and services.